createdAt,value
2022-08-16T00:01:40.838Z,19.80
2022-08-16T00:04:07.740Z,20.30
2022-08-16T00:06:39.195Z,19.83
2022-08-16T00:09:06.487Z,20.50
2022-08-16T00:11:33.430Z,19.83
2022-08-16T00:14:00.064Z,22.07
2022-08-16T00:17:01.026Z,20.80
2022-08-16T00:19:22.577Z,21.03
2022-08-16T00:21:53.105Z,21.23
2022-08-16T00:24:32.583Z,21.50
2022-08-16T00:27:01.354Z,21.77
2022-08-16T00:29:29.941Z,22.30
2022-08-16T00:32:01.103Z,22.27
2022-08-16T00:34:43.839Z,22.80
2022-08-16T00:37:20.371Z,21.57
2022-08-16T00:39:49.050Z,21.87
2022-08-16T00:42:30.558Z,23.13
2022-08-16T00:45:27.330Z,21.63
2022-08-16T00:47:54.813Z,21.90
2022-08-16T00:50:35.755Z,21.63
2022-08-16T00:53:06.294Z,21.70
2022-08-16T00:55:37.518Z,21.20
2022-08-16T00:58:05.031Z,20.77
2022-08-16T01:00:39.871Z,19.93
2022-08-16T01:03:11.802Z,20.60
2022-08-16T01:05:40.078Z,20.13
2022-08-16T01:08:35.824Z,20.20
2022-08-16T01:10:55.345Z,21.30
2022-08-16T01:13:29.705Z,19.43
2022-08-16T01:16:00.492Z,20.23
2022-08-16T01:18:40.412Z,21.33
2022-08-16T01:21:14.822Z,19.93
2022-08-16T01:24:03.208Z,19.60
2022-08-16T01:26:34.535Z,19.63
2022-08-16T01:29:10.001Z,20.07
2022-08-16T01:31:37.622Z,20.20
2022-08-16T01:34:09.916Z,19.90
2022-08-16T01:37:08.071Z,20.00
2022-08-16T01:39:35.827Z,21.17
2022-08-16T01:42:04.633Z,20.60
2022-08-16T01:44:39.481Z,21.73
2022-08-16T01:47:07.310Z,22.83
2022-08-16T01:49:45.472Z,22.57
2022-08-16T01:52:28.188Z,24.07
2022-08-16T01:54:57.390Z,22.37
2022-08-16T01:57:24.747Z,25.83
2022-08-16T01:59:54.684Z,25.80
2022-08-16T02:02:27.087Z,24.63
2022-08-16T02:04:55.053Z,25.60
2022-08-16T02:07:23.684Z,26.77
2022-08-16T02:09:57.052Z,30.70
2022-08-16T02:12:50.304Z,33.30
2022-08-16T02:15:13.169Z,46.20
2022-08-16T02:17:40.654Z,56.23
2022-08-16T02:20:11.698Z,55.87
2022-08-16T02:22:39.378Z,44.63
2022-08-16T02:25:10.455Z,45.47
2022-08-16T02:27:41.207Z,47.13
2022-08-16T02:30:37.350Z,46.77
2022-08-16T02:33:00.897Z,51.03
2022-08-16T02:35:29.291Z,46.30
2022-08-16T02:37:56.225Z,50.53
2022-08-16T02:40:23.697Z,49.10
2022-08-16T02:42:53.812Z,49.93
2022-08-16T02:45:24.799Z,44.90
2022-08-16T02:48:01.894Z,57.00
2022-08-16T02:50:54.153Z,50.50
2022-08-16T02:53:27.536Z,47.40
2022-08-16T02:55:54.241Z,59.97
2022-08-16T02:58:24.759Z,63.87
2022-08-16T03:00:55.918Z,49.30
2022-08-16T03:03:23.442Z,61.37
2022-08-16T03:05:53.111Z,58.93
2022-08-16T03:08:51.007Z,55.53
2022-08-16T03:11:17.965Z,48.47
2022-08-16T03:13:55.805Z,46.30
2022-08-16T03:16:37.792Z,48.10
2022-08-16T03:19:06.289Z,44.30
2022-08-16T03:21:37.960Z,44.57
2022-08-16T03:24:28.455Z,50.20
2022-08-16T03:26:53.313Z,45.67
2022-08-16T03:29:27.310Z,46.70
2022-08-16T03:31:56.943Z,45.50
2022-08-16T03:34:26.574Z,46.23
2022-08-16T03:36:53.361Z,48.57
2022-08-16T03:39:20.419Z,46.17
2022-08-16T03:41:50.661Z,45.27
2022-08-16T03:44:44.632Z,45.90
2022-08-16T03:47:05.093Z,44.87
2022-08-16T03:49:37.314Z,46.17
2022-08-16T03:52:04.436Z,48.00
2022-08-16T03:54:31.041Z,50.37
2022-08-16T03:56:58.642Z,44.20
2022-08-16T03:59:25.829Z,43.30
2022-08-16T04:01:56.730Z,44.73
2022-08-16T04:04:25.197Z,45.60
2022-08-16T04:06:59.458Z,38.00
2022-08-16T04:09:25.961Z,40.83
2022-08-16T04:11:52.958Z,46.00
2022-08-16T04:14:33.340Z,44.23
2022-08-16T04:17:01.740Z,44.07
2022-08-16T04:19:31.516Z,41.73
2022-08-16T04:21:58.518Z,44.67
2022-08-16T04:24:28.894Z,43.97
2022-08-16T04:26:55.674Z,53.57
2022-08-16T04:29:24.898Z,43.27
2022-08-16T04:31:56.836Z,42.20
2022-08-16T04:34:30.441Z,36.30
2022-08-16T04:36:58.997Z,37.13
2022-08-16T04:39:44.888Z,42.60
2022-08-16T04:42:18.903Z,35.80
2022-08-16T04:44:55.496Z,38.53
2022-08-16T04:47:33.172Z,42.10
2022-08-16T04:50:08.101Z,39.90
2022-08-16T04:52:35.950Z,38.47
2022-08-16T04:55:16.192Z,37.63
2022-08-16T04:57:43.506Z,41.03
2022-08-16T05:00:32.001Z,36.97
2022-08-16T05:03:07.093Z,36.00
2022-08-16T05:05:45.402Z,41.30
2022-08-16T05:08:27.955Z,45.70
2022-08-16T05:11:01.426Z,41.03
2022-08-16T05:13:40.311Z,39.53
2022-08-16T05:16:11.749Z,41.30
2022-08-16T05:18:38.591Z,39.70
2022-08-16T05:21:11.369Z,40.53
2022-08-16T05:23:39.248Z,43.70
2022-08-16T05:26:05.929Z,42.47
2022-08-16T05:28:46.677Z,44.30
2022-08-16T05:31:21.910Z,44.80
2022-08-16T05:33:53.554Z,44.50
2022-08-16T05:36:21.668Z,46.40
2022-08-16T05:38:49.062Z,43.30
2022-08-16T05:41:16.892Z,44.70
2022-08-16T05:43:46.839Z,42.80
2022-08-16T05:46:30.574Z,41.10
2022-08-16T05:49:04.017Z,39.83
2022-08-16T05:51:38.823Z,43.40
2022-08-16T05:54:09.597Z,39.17
2022-08-16T05:56:38.451Z,39.00
2022-08-16T05:59:06.146Z,37.47
2022-08-16T06:01:37.794Z,36.70
2022-08-16T06:04:13.574Z,35.47
2022-08-16T06:06:56.765Z,34.43
2022-08-16T06:09:25.218Z,33.50
2022-08-16T06:11:52.377Z,33.50
2022-08-16T06:14:19.118Z,30.53
2022-08-16T06:16:50.539Z,32.27
2022-08-16T06:19:17.795Z,27.93
2022-08-16T06:21:44.480Z,28.83
2022-08-16T06:24:53.391Z,28.60
2022-08-16T06:26:58.486Z,25.83
2022-08-16T06:29:25.173Z,30.47
2022-08-16T06:31:51.860Z,28.67
2022-08-16T06:34:55.373Z,30.57
2022-08-16T06:37:05.432Z,28.77
2022-08-16T06:39:34.529Z,28.00
2022-08-16T06:42:18.342Z,29.07
2022-08-16T06:44:46.087Z,27.83
2022-08-16T06:47:17.122Z,27.63
2022-08-16T06:49:53.870Z,28.43
2022-08-16T06:53:08.658Z,28.90
2022-08-16T06:55:13.540Z,28.77
2022-08-16T06:57:41.141Z,31.17
2022-08-16T07:00:17.545Z,27.43
2022-08-16T07:02:53.582Z,27.73
2022-08-16T07:05:27.363Z,26.37
2022-08-16T07:08:10.580Z,27.67
2022-08-16T07:10:38.786Z,26.90
2022-08-16T07:13:11.733Z,27.80
2022-08-16T07:15:50.671Z,26.53
2022-08-16T07:18:21.296Z,28.27
2022-08-16T07:20:53.443Z,28.30
2022-08-16T07:23:38.691Z,28.93
2022-08-16T07:26:08.118Z,29.20
2022-08-16T07:28:35.435Z,28.37
2022-08-16T07:31:03.207Z,28.13
2022-08-16T07:33:52.951Z,27.20
2022-08-16T07:36:21.724Z,26.07
2022-08-16T07:38:49.226Z,28.53
2022-08-16T07:41:16.807Z,24.77
2022-08-16T07:43:43.514Z,26.93
2022-08-16T07:46:38.077Z,23.37
2022-08-16T07:49:02.476Z,25.20
2022-08-16T07:51:33.119Z,21.87
2022-08-16T07:54:09.564Z,20.80
2022-08-16T07:56:37.689Z,19.63
2022-08-16T07:59:05.395Z,20.47
2022-08-16T08:01:32.070Z,18.03
2022-08-16T08:03:59.234Z,15.90
2022-08-16T08:06:31.259Z,14.20
2022-08-16T08:08:59.464Z,14.63
2022-08-16T08:11:27.997Z,13.70
2022-08-16T08:13:55.325Z,13.37
2022-08-16T08:16:30.100Z,13.63
2022-08-16T08:19:00.862Z,15.00
2022-08-16T08:22:01.177Z,11.20
2022-08-16T08:24:15.528Z,13.67
2022-08-16T08:26:43.051Z,10.97
2022-08-16T08:29:09.810Z,11.00
2022-08-16T08:31:41.037Z,11.87
2022-08-16T08:34:07.914Z,12.30
2022-08-16T08:36:37.120Z,12.43
2022-08-16T08:39:13.029Z,10.67
2022-08-16T08:41:40.521Z,11.10
2022-08-16T08:44:27.848Z,13.20
2022-08-16T08:47:00.107Z,14.83
2022-08-16T08:49:50.378Z,11.30
2022-08-16T08:52:34.441Z,13.83
2022-08-16T08:55:10.487Z,13.97
2022-08-16T08:57:40.764Z,15.70
2022-08-16T09:00:13.537Z,17.13
2022-08-16T09:02:43.083Z,16.93
2022-08-16T09:05:15.649Z,14.50
2022-08-16T09:08:00.855Z,15.70
2022-08-16T09:10:29.898Z,14.97
2022-08-16T09:12:57.584Z,16.20
2022-08-16T09:15:24.186Z,14.30
2022-08-16T09:17:54.838Z,14.53
2022-08-16T09:20:25.714Z,13.30
2022-08-16T09:22:53.007Z,12.77
2022-08-16T09:25:33.567Z,12.67
2022-08-16T09:28:02.355Z,13.60
2022-08-16T09:30:43.451Z,11.63
2022-08-16T09:33:12.767Z,11.53
2022-08-16T09:35:42.443Z,10.93
2022-08-16T09:38:12.891Z,13.80
2022-08-16T09:40:59.047Z,9.97
2022-08-16T09:43:53.336Z,10.27
2022-08-16T09:46:45.991Z,9.03
2022-08-16T09:48:59.206Z,13.63
2022-08-16T09:51:30.718Z,10.13
2022-08-16T09:54:03.668Z,9.17
2022-08-16T09:56:33.069Z,11.27
2022-08-16T09:59:05.562Z,9.47
2022-08-16T10:01:36.424Z,12.93
2022-08-16T10:04:04.541Z,11.63
2022-08-16T10:06:34.248Z,10.07
2022-08-16T10:09:08.197Z,8.63
2022-08-16T10:11:56.041Z,14.83
2022-08-16T10:14:37.723Z,10.87
2022-08-16T10:17:05.244Z,9.33
2022-08-16T10:19:33.095Z,8.53
2022-08-16T10:22:04.921Z,8.13
2022-08-16T10:24:32.950Z,10.30
2022-08-16T10:27:25.177Z,8.90
2022-08-16T10:30:01.520Z,9.83
2022-08-16T10:32:32.673Z,9.80
2022-08-16T10:35:00.232Z,8.53
2022-08-16T10:37:36.031Z,7.30
2022-08-16T10:40:28.375Z,7.10
2022-08-16T10:42:56.227Z,8.83
2022-08-16T10:45:23.029Z,6.97
2022-08-16T10:47:51.667Z,6.93
2022-08-16T10:50:31.295Z,10.83
2022-08-16T10:52:59.321Z,6.60
2022-08-16T10:55:44.742Z,7.10
2022-08-16T10:58:16.056Z,8.27
2022-08-16T11:00:46.174Z,7.77
2022-08-16T11:06:03.345Z,6.50
2022-08-16T11:08:40.753Z,6.03
2022-08-16T11:11:19.211Z,6.77
2022-08-16T11:14:10.830Z,6.10
2022-08-16T11:19:22.610Z,6.67
2022-08-16T11:24:43.350Z,6.93
2022-08-16T11:27:20.568Z,7.67
2022-08-16T11:29:49.855Z,7.33
2022-08-16T11:32:20.338Z,5.97
2022-08-16T11:35:10.936Z,11.00
2022-08-16T11:40:33.151Z,5.97
2022-08-16T11:43:04.603Z,6.63
2022-08-16T11:45:33.805Z,6.33
2022-08-16T11:48:02.858Z,5.87
2022-08-16T11:50:33.249Z,5.80
2022-08-16T11:53:04.195Z,7.73
2022-08-16T11:55:31.785Z,6.97
2022-08-16T11:58:00.145Z,5.27
2022-08-16T12:00:49.658Z,5.03
2022-08-16T12:03:14.446Z,5.90
2022-08-16T12:05:44.022Z,6.57
2022-08-16T12:08:11.384Z,6.40
2022-08-16T12:10:40.808Z,4.87
2022-08-16T12:13:10.508Z,5.77
2022-08-16T12:15:37.723Z,6.97
2022-08-16T12:18:06.771Z,7.90
2022-08-16T12:20:37.208Z,5.97
2022-08-16T12:23:04.355Z,5.43
2022-08-16T12:25:33.640Z,6.00
2022-08-16T12:28:02.881Z,5.53
2022-08-16T12:30:36.360Z,8.97
2022-08-16T12:33:06.667Z,5.53
2022-08-16T12:35:34.535Z,8.67
2022-08-16T12:38:38.039Z,7.70
2022-08-16T12:40:50.874Z,6.33
2022-08-16T12:43:23.539Z,6.73
2022-08-16T12:45:53.598Z,6.80
2022-08-16T12:48:43.322Z,6.50
2022-08-16T12:51:19.352Z,6.97
2022-08-16T12:53:52.350Z,7.50
2022-08-16T12:56:20.836Z,6.20
2022-08-16T12:58:51.830Z,8.93
2022-08-16T13:01:22.658Z,8.87
2022-08-16T13:03:59.280Z,8.07
2022-08-16T13:06:36.829Z,7.37
2022-08-16T13:09:18.270Z,10.10
2022-08-16T13:11:58.014Z,6.50
2022-08-16T13:14:36.005Z,6.27
2022-08-16T13:17:06.533Z,6.40
2022-08-16T13:19:56.383Z,7.97
2022-08-16T13:22:21.982Z,7.93
2022-08-16T13:24:50.579Z,5.57
2022-08-16T13:27:17.930Z,7.53
2022-08-16T13:29:45.211Z,6.60
2022-08-16T13:32:39.357Z,7.63
2022-08-16T13:35:04.971Z,5.00
2022-08-16T13:37:32.515Z,5.20
2022-08-16T13:40:05.237Z,4.93
2022-08-16T13:42:32.381Z,7.07
2022-08-16T13:45:08.880Z,5.00
2022-08-16T13:47:35.463Z,5.13
2022-08-16T13:50:02.714Z,5.83
2022-08-16T13:52:34.116Z,5.10
2022-08-16T13:55:06.727Z,4.37
2022-08-16T13:58:35.306Z,7.30
2022-08-16T14:00:30.958Z,5.30
2022-08-16T14:02:59.215Z,5.83
2022-08-16T14:05:27.015Z,5.17
2022-08-16T14:07:53.871Z,6.23
2022-08-16T14:10:20.540Z,4.57
2022-08-16T14:12:47.929Z,4.90
2022-08-16T14:15:15.969Z,5.00
2022-08-16T14:18:14.785Z,7.37
2022-08-16T14:20:29.610Z,6.53
2022-08-16T14:22:56.208Z,5.93
2022-08-16T14:25:23.525Z,6.07
2022-08-16T14:27:54.259Z,8.20
2022-08-16T14:30:21.662Z,6.47
2022-08-16T14:32:50.838Z,6.17
2022-08-16T14:35:36.500Z,6.60
2022-08-16T14:38:11.090Z,5.50
2022-08-16T14:40:47.185Z,5.67
2022-08-16T14:43:19.090Z,4.97
2022-08-16T14:45:46.289Z,5.70
2022-08-16T14:48:21.471Z,6.87
2022-08-16T14:50:51.990Z,4.67
2022-08-16T14:53:20.489Z,5.93
2022-08-16T14:55:48.419Z,4.93
2022-08-16T14:58:19.580Z,4.90
2022-08-16T15:00:49.974Z,6.80
2022-08-16T15:03:18.676Z,9.40
2022-08-16T15:05:48.334Z,6.17
2022-08-16T15:08:17.132Z,5.43
2022-08-16T15:10:46.995Z,7.93
2022-08-16T15:13:14.088Z,9.60
2022-08-16T15:15:42.136Z,6.20
2022-08-16T15:18:12.287Z,5.40
2022-08-16T15:20:41.144Z,6.33
2022-08-16T15:23:09.217Z,7.07
2022-08-16T15:25:42.370Z,7.93
2022-08-16T15:28:31.070Z,6.37
2022-08-16T15:31:00.903Z,5.60
2022-08-16T15:33:32.055Z,5.53
2022-08-16T15:35:59.427Z,5.27
2022-08-16T15:38:43.525Z,6.00
2022-08-16T15:41:28.769Z,4.97
2022-08-16T15:44:04.799Z,6.83
2022-08-16T15:46:54.798Z,5.60
2022-08-16T15:49:23.516Z,5.20
2022-08-16T15:51:51.930Z,6.03
2022-08-16T15:54:30.308Z,5.20
2022-08-16T15:57:04.360Z,5.03
2022-08-16T15:59:48.644Z,7.23
2022-08-16T16:02:27.395Z,6.33
2022-08-16T16:04:56.661Z,7.43
2022-08-16T16:07:23.534Z,7.67
2022-08-16T16:09:53.245Z,4.30
2022-08-16T16:12:50.315Z,6.13
2022-08-16T16:15:07.285Z,6.63
2022-08-16T16:17:33.981Z,6.27
2022-08-16T16:20:03.942Z,4.83
2022-08-16T16:22:30.773Z,7.43
2022-08-16T16:24:57.294Z,7.20
2022-08-16T16:27:24.015Z,7.97
2022-08-16T16:30:01.614Z,6.23
2022-08-16T16:32:35.052Z,5.40
2022-08-16T16:35:06.092Z,4.43
2022-08-16T16:37:33.019Z,4.80
2022-08-16T16:40:01.197Z,6.33
2022-08-16T16:42:31.390Z,4.50
2022-08-16T16:45:01.693Z,5.70
2022-08-16T16:47:30.117Z,7.63
2022-08-16T16:50:09.226Z,7.87
2022-08-16T16:52:44.373Z,5.47
2022-08-16T16:55:14.741Z,6.73
2022-08-16T16:58:00.610Z,5.17
2022-08-16T17:00:37.524Z,4.93
2022-08-16T17:03:05.519Z,4.33
2022-08-16T17:05:32.609Z,5.23
2022-08-16T17:07:59.992Z,7.03
2022-08-16T17:10:46.404Z,4.30
2022-08-16T17:13:14.524Z,6.10
2022-08-16T17:15:41.853Z,7.80
2022-08-16T17:19:02.024Z,5.07
2022-08-16T17:20:54.839Z,4.67
2022-08-16T17:23:21.417Z,6.50
2022-08-16T17:26:10.406Z,8.23
2022-08-16T17:28:58.441Z,5.33
2022-08-16T17:31:23.824Z,8.07
2022-08-16T17:34:30.591Z,6.17
2022-08-16T17:36:54.555Z,6.80
2022-08-16T17:39:21.533Z,5.47
2022-08-16T17:41:50.855Z,6.17
2022-08-16T17:44:19.254Z,5.87
2022-08-16T17:46:51.801Z,5.47
2022-08-16T17:49:19.085Z,6.53
2022-08-16T17:51:45.569Z,6.00
2022-08-16T17:54:16.987Z,6.10
2022-08-16T17:56:56.679Z,6.13
2022-08-16T17:59:24.150Z,6.87
2022-08-16T18:01:50.786Z,5.20
2022-08-16T18:04:48.331Z,11.03
2022-08-16T18:07:05.327Z,6.53
2022-08-16T18:09:31.902Z,6.07
2022-08-16T18:11:58.676Z,5.23
2022-08-16T18:14:50.051Z,5.63
2022-08-16T18:17:12.850Z,7.83
2022-08-16T18:19:39.335Z,6.70
2022-08-16T18:22:21.058Z,5.30
2022-08-16T18:24:49.245Z,5.40
2022-08-16T18:27:25.509Z,5.97
2022-08-16T18:29:53.134Z,5.40
2022-08-16T18:32:23.083Z,7.90
2022-08-16T18:34:54.127Z,6.97
2022-08-16T18:37:20.879Z,8.20
2022-08-16T18:39:47.498Z,5.77
2022-08-16T18:42:15.109Z,5.77
2022-08-16T18:44:43.720Z,5.53
2022-08-16T18:47:10.585Z,6.90
2022-08-16T18:49:37.197Z,7.83
2022-08-16T18:52:04.299Z,5.93
2022-08-16T18:54:32.568Z,5.70
2022-08-16T18:56:59.198Z,7.33
2022-08-16T18:59:27.270Z,9.40
2022-08-16T19:01:55.491Z,6.20
2022-08-16T19:04:55.401Z,7.57
2022-08-16T19:07:14.915Z,6.07
2022-08-16T19:09:41.433Z,7.17
2022-08-16T19:12:08.246Z,6.77
2022-08-16T19:14:34.811Z,5.83
2022-08-16T19:17:01.282Z,9.80
2022-08-16T19:19:27.814Z,8.77
2022-08-16T19:21:54.289Z,10.13
2022-08-16T19:24:20.937Z,8.03
2022-08-16T19:26:49.496Z,7.77
2022-08-16T19:29:16.032Z,8.97
2022-08-16T19:31:44.223Z,8.13
2022-08-16T19:34:11.296Z,8.90
2022-08-16T19:36:39.636Z,9.40
2022-08-16T19:39:15.153Z,8.87
2022-08-16T19:41:52.012Z,9.40
2022-08-16T19:44:21.887Z,9.93
2022-08-16T19:46:49.201Z,9.33
2022-08-16T19:49:16.860Z,9.27
2022-08-16T19:51:44.928Z,11.07
2022-08-16T19:54:11.477Z,9.47
2022-08-16T19:56:37.947Z,10.87
2022-08-16T19:59:21.767Z,11.23
2022-08-16T20:01:52.171Z,11.17
2022-08-16T20:04:19.626Z,10.40
2022-08-16T20:06:47.204Z,12.07
2022-08-16T20:09:15.563Z,12.07
2022-08-16T20:11:46.634Z,12.63
2022-08-16T20:14:24.876Z,12.27
2022-08-16T20:16:54.474Z,13.40
2022-08-16T20:19:21.124Z,13.23
2022-08-16T20:21:47.597Z,18.30
2022-08-16T20:24:33.401Z,15.10
2022-08-16T20:27:02.525Z,14.90
2022-08-16T20:29:29.959Z,14.80
2022-08-16T20:31:56.510Z,16.10
2022-08-16T20:34:23.057Z,16.47
2022-08-16T20:36:50.115Z,16.97
2022-08-16T20:39:16.951Z,16.80
2022-08-16T20:41:44.034Z,16.90
2022-08-16T20:44:11.912Z,17.60
2022-08-16T20:46:39.000Z,17.93
2022-08-16T20:49:08.880Z,15.00
2022-08-16T20:51:49.412Z,15.27
2022-08-16T20:54:16.522Z,15.27
2022-08-16T20:56:43.010Z,15.60
2022-08-16T20:59:09.849Z,17.97
2022-08-16T21:01:46.329Z,16.27
2022-08-16T21:04:17.124Z,17.10
2022-08-16T21:06:45.461Z,16.13
2022-08-16T21:09:25.425Z,15.80
2022-08-16T21:11:53.511Z,15.23
2022-08-16T21:14:20.033Z,14.17
2022-08-16T21:16:46.521Z,13.63
2022-08-16T21:19:13.236Z,16.63
2022-08-16T21:21:39.802Z,15.10
2022-08-16T21:24:06.377Z,14.07
2022-08-16T21:26:33.301Z,14.17
2022-08-16T21:29:07.642Z,15.30
2022-08-16T21:31:34.349Z,14.53
2022-08-16T21:34:02.253Z,14.60
2022-08-16T21:36:35.877Z,15.47
2022-08-16T21:39:05.593Z,14.43
2022-08-16T21:41:32.714Z,15.73
2022-08-16T21:43:59.170Z,15.73
2022-08-16T21:46:26.052Z,22.57
2022-08-16T21:48:52.550Z,23.63
2022-08-16T21:51:19.222Z,23.97
2022-08-16T21:53:45.692Z,21.37
2022-08-16T21:56:17.172Z,22.17
2022-08-16T21:58:45.837Z,23.70
2022-08-16T22:01:12.899Z,23.00
2022-08-16T22:03:40.052Z,23.40
2022-08-16T22:06:14.098Z,22.27
2022-08-16T22:08:50.188Z,22.37
2022-08-16T22:11:32.276Z,20.90
2022-08-16T22:13:59.672Z,23.13
2022-08-16T22:16:37.255Z,22.17
2022-08-16T22:19:04.465Z,21.63
2022-08-16T22:21:32.223Z,22.90
2022-08-16T22:23:59.809Z,21.87
2022-08-16T22:26:29.943Z,22.47
2022-08-16T22:29:01.507Z,20.47
2022-08-16T22:31:28.675Z,21.53
2022-08-16T22:33:56.886Z,23.17
2022-08-16T22:36:28.763Z,22.70
2022-08-16T22:38:57.941Z,22.63
2022-08-16T22:41:26.216Z,23.23
2022-08-16T22:43:52.857Z,24.33
2022-08-16T22:46:19.567Z,23.57
2022-08-16T22:48:46.496Z,25.13
2022-08-16T22:51:12.985Z,24.47
2022-08-16T22:53:39.456Z,25.13
2022-08-16T22:56:06.216Z,20.33
2022-08-16T22:58:36.573Z,22.13
2022-08-16T23:01:05.947Z,21.37
2022-08-16T23:03:32.822Z,21.47
2022-08-16T23:06:00.528Z,22.70
2022-08-16T23:08:38.393Z,22.33
2022-08-16T23:11:12.317Z,22.90
2022-08-16T23:13:49.955Z,23.97
2022-08-16T23:16:22.377Z,26.63
2022-08-16T23:18:49.458Z,24.03
2022-08-16T23:21:18.035Z,21.73
2022-08-16T23:23:46.654Z,26.97
2022-08-16T23:26:44.674Z,26.93
2022-08-16T23:29:04.339Z,27.60
2022-08-16T23:31:31.593Z,25.37
2022-08-16T23:33:58.233Z,27.37
2022-08-16T23:36:24.818Z,29.10
2022-08-16T23:38:51.272Z,29.37
2022-08-16T23:41:17.812Z,30.07
2022-08-16T23:43:44.341Z,26.73
2022-08-16T23:46:16.260Z,30.93
2022-08-16T23:49:57.072Z,28.47
2022-08-16T23:51:30.216Z,29.77
2022-08-16T23:53:56.824Z,30.73
2022-08-16T23:56:23.381Z,32.47
2022-08-16T23:58:54.525Z,32.97
